sensor_id;sensor_type;location;lat;lon;timestamp;temperature;humidity
56256;DHT22;57229;51.432;-2.598;2023-12-20T00:01:18;6.70;99.90
56256;DHT22;57229;51.432;-2.598;2023-12-20T00:03:44;6.70;99.90
56256;DHT22;57229;51.432;-2.598;2023-12-20T00:06:10;6.70;99.90
56256;DHT22;57229;51.432;-2.598;2023-12-20T00:08:36;6.60;99.90
56256;DHT22;57229;51.432;-2.598;2023-12-20T00:11:01;6.60;99.90
56256;DHT22;57229;51.432;-2.598;2023-12-20T00:13:27;6.60;99.90
56256;DHT22;57229;51.432;-2.598;2023-12-20T00:15:55;6.60;99.90
56256;DHT22;57229;51.432;-2.598;2023-12-20T00:18:21;6.50;99.90
56256;DHT22;57229;51.432;-2.598;2023-12-20T00:20:46;6.50;99.90
56256;DHT22;57229;51.432;-2.598;2023-12-20T00:23:12;6.50;99.90
56256;DHT22;57229;51.432;-2.598;2023-12-20T00:25:38;6.50;99.90
56256;DHT22;57229;51.432;-2.598;2023-12-20T00:28:03;6.40;99.90
56256;DHT22;57229;51.432;-2.598;2023-12-20T00:30:29;6.40;99.90
56256;DHT22;57229;51.432;-2.598;2023-12-20T00:32:56;6.30;99.90
56256;DHT22;57229;51.432;-2.598;2023-12-20T00:35:21;6.30;99.90
56256;DHT22;57229;51.432;-2.598;2023-12-20T00:37:47;6.30;99.90
56256;DHT22;57229;51.432;-2.598;2023-12-20T00:40:13;6.70;99.90
56256;DHT22;57229;51.432;-2.598;2023-12-20T00:42:38;6.30;99.90
56256;DHT22;57229;51.432;-2.598;2023-12-20T00:45:05;6.20;99.90
56256;DHT22;57229;51.432;-2.598;2023-12-20T00:47:31;6.20;99.90
56256;DHT22;57229;51.432;-2.598;2023-12-20T00:49:57;6.10;99.90
56256;DHT22;57229;51.432;-2.598;2023-12-20T00:52:23;7.30;99.90
56256;DHT22;57229;51.432;-2.598;2023-12-20T00:54:49;7.80;99.90
56256;DHT22;57229;51.432;-2.598;2023-12-20T00:57:15;8.10;99.90
56256;DHT22;57229;51.432;-2.598;2023-12-20T00:59:40;7.90;99.90
56256;DHT22;57229;51.432;-2.598;2023-12-20T01:02:06;7.40;99.90
56256;DHT22;57229;51.432;-2.598;2023-12-20T01:04:52;7.70;99.90
56256;DHT22;57229;51.432;-2.598;2023-12-20T01:07:18;7.10;99.90
56256;DHT22;57229;51.432;-2.598;2023-12-20T01:09:44;7.90;99.90
56256;DHT22;57229;51.432;-2.598;2023-12-20T01:12:09;6.00;99.90
56256;DHT22;57229;51.432;-2.598;2023-12-20T01:14:35;6.00;99.90
56256;DHT22;57229;51.432;-2.598;2023-12-20T01:17:02;7.70;99.90
56256;DHT22;57229;51.432;-2.598;2023-12-20T01:19:27;4.80;99.90
56256;DHT22;57229;51.432;-2.598;2023-12-20T01:21:54;6.30;99.90
56256;DHT22;57229;51.432;-2.598;2023-12-20T01:24:21;6.10;99.90
56256;DHT22;57229;51.432;-2.598;2023-12-20T01:26:47;5.10;99.90
56256;DHT22;57229;51.432;-2.598;2023-12-20T01:29:12;7.70;99.90
56256;DHT22;57229;51.432;-2.598;2023-12-20T01:31:39;7.50;99.90
56256;DHT22;57229;51.432;-2.598;2023-12-20T01:34:06;6.90;99.90
56256;DHT22;57229;51.432;-2.598;2023-12-20T01:36:31;7.20;99.90
56256;DHT22;57229;51.432;-2.598;2023-12-20T01:38:57;6.80;99.90
56256;DHT22;57229;51.432;-2.598;2023-12-20T01:41:23;7.90;99.90
56256;DHT22;57229;51.432;-2.598;2023-12-20T01:43:48;7.40;99.90
56256;DHT22;57229;51.432;-2.598;2023-12-20T01:46:14;8.10;99.90
56256;DHT22;57229;51.432;-2.598;2023-12-20T01:48:41;6.60;99.90
56256;DHT22;57229;51.432;-2.598;2023-12-20T01:51:07;7.80;99.90
56256;DHT22;57229;51.432;-2.598;2023-12-20T01:53:33;6.60;99.90
56256;DHT22;57229;51.432;-2.598;2023-12-20T01:55:59;6.70;99.90
56256;DHT22;57229;51.432;-2.598;2023-12-20T01:58:25;6.70;99.90
56256;DHT22;57229;51.432;-2.598;2023-12-20T02:00:51;6.80;99.90
56256;DHT22;57229;51.432;-2.598;2023-12-20T02:03:18;6.80;99.90
56256;DHT22;57229;51.432;-2.598;2023-12-20T02:05:44;6.90;99.90
56256;DHT22;57229;51.432;-2.598;2023-12-20T02:08:11;6.90;99.90
56256;DHT22;57229;51.432;-2.598;2023-12-20T02:10:37;7.80;99.90
56256;DHT22;57229;51.432;-2.598;2023-12-20T02:13:03;8.60;99.90
56256;DHT22;57229;51.432;-2.598;2023-12-20T02:15:29;7.40;99.90
56256;DHT22;57229;51.432;-2.598;2023-12-20T02:17:55;9.00;99.90
56256;DHT22;57229;51.432;-2.598;2023-12-20T02:20:21;7.00;99.90
56256;DHT22;57229;51.432;-2.598;2023-12-20T02:22:47;8.30;99.90
56256;DHT22;57229;51.432;-2.598;2023-12-20T02:25:13;8.90;99.90
56256;DHT22;57229;51.432;-2.598;2023-12-20T02:27:39;7.60;99.90
56256;DHT22;57229;51.432;-2.598;2023-12-20T02:30:06;7.40;99.90
56256;DHT22;57229;51.432;-2.598;2023-12-20T02:32:32;6.80;99.90
56256;DHT22;57229;51.432;-2.598;2023-12-20T02:34:58;7.50;99.90
56256;DHT22;57229;51.432;-2.598;2023-12-20T02:37:23;7.10;99.90
56256;DHT22;57229;51.432;-2.598;2023-12-20T02:39:49;7.00;99.90
56256;DHT22;57229;51.432;-2.598;2023-12-20T02:42:15;7.00;99.90
56256;DHT22;57229;51.432;-2.598;2023-12-20T02:44:43;7.10;99.90
56256;DHT22;57229;51.432;-2.598;2023-12-20T02:47:15;7.30;99.90
56256;DHT22;57229;51.432;-2.598;2023-12-20T02:49:41;7.20;99.90
56256;DHT22;57229;51.432;-2.598;2023-12-20T02:52:07;7.10;99.90
56256;DHT22;57229;51.432;-2.598;2023-12-20T02:54:33;7.20;99.90
56256;DHT22;57229;51.432;-2.598;2023-12-20T02:56:58;8.20;99.90
56256;DHT22;57229;51.432;-2.598;2023-12-20T02:59:24;7.70;99.90
56256;DHT22;57229;51.432;-2.598;2023-12-20T03:01:50;7.40;99.90
56256;DHT22;57229;51.432;-2.598;2023-12-20T03:04:16;8.30;99.90
56256;DHT22;57229;51.432;-2.598;2023-12-20T03:06:42;8.40;99.90
56256;DHT22;57229;51.432;-2.598;2023-12-20T03:09:07;8.30;99.90
56256;DHT22;57229;51.432;-2.598;2023-12-20T03:11:39;9.20;99.90
56256;DHT22;57229;51.432;-2.598;2023-12-20T03:14:12;7.50;99.90
56256;DHT22;57229;51.432;-2.598;2023-12-20T03:16:41;8.00;99.90
56256;DHT22;57229;51.432;-2.598;2023-12-20T03:19:07;7.60;99.90
56256;DHT22;57229;51.432;-2.598;2023-12-20T03:21:34;7.70;99.90
56256;DHT22;57229;51.432;-2.598;2023-12-20T03:23:59;9.40;99.90
56256;DHT22;57229;51.432;-2.598;2023-12-20T03:26:25;8.90;99.90
56256;DHT22;57229;51.432;-2.598;2023-12-20T03:28:51;7.80;99.90
56256;DHT22;57229;51.432;-2.598;2023-12-20T03:31:17;8.40;99.90
56256;DHT22;57229;51.432;-2.598;2023-12-20T03:33:43;8.30;99.90
56256;DHT22;57229;51.432;-2.598;2023-12-20T03:36:09;10.00;99.90
56256;DHT22;57229;51.432;-2.598;2023-12-20T03:38:35;8.80;99.90
56256;DHT22;57229;51.432;-2.598;2023-12-20T03:41:00;7.90;99.90
56256;DHT22;57229;51.432;-2.598;2023-12-20T03:43:29;7.90;99.90
56256;DHT22;57229;51.432;-2.598;2023-12-20T03:45:55;7.80;99.90
56256;DHT22;57229;51.432;-2.598;2023-12-20T03:48:20;8.00;99.90
56256;DHT22;57229;51.432;-2.598;2023-12-20T03:50:46;8.20;99.90
56256;DHT22;57229;51.432;-2.598;2023-12-20T03:53:11;9.40;99.90
56256;DHT22;57229;51.432;-2.598;2023-12-20T03:55:40;7.90;99.90
56256;DHT22;57229;51.432;-2.598;2023-12-20T03:58:06;7.80;99.90
56256;DHT22;57229;51.432;-2.598;2023-12-20T04:00:32;7.80;99.90
56256;DHT22;57229;51.432;-2.598;2023-12-20T04:02:58;9.90;99.90
56256;DHT22;57229;51.432;-2.598;2023-12-20T04:05:24;7.80;99.90
56256;DHT22;57229;51.432;-2.598;2023-12-20T04:07:49;8.50;99.90
56256;DHT22;57229;51.432;-2.598;2023-12-20T04:10:16;7.80;99.90
56256;DHT22;57229;51.432;-2.598;2023-12-20T04:12:42;8.00;99.90
56256;DHT22;57229;51.432;-2.598;2023-12-20T04:15:09;7.80;99.90
56256;DHT22;57229;51.432;-2.598;2023-12-20T04:17:35;7.80;99.90
56256;DHT22;57229;51.432;-2.598;2023-12-20T04:20:01;9.30;99.90
56256;DHT22;57229;51.432;-2.598;2023-12-20T04:22:27;7.80;99.90
56256;DHT22;57229;51.432;-2.598;2023-12-20T04:24:53;9.20;99.90
56256;DHT22;57229;51.432;-2.598;2023-12-20T04:27:19;7.80;99.90
56256;DHT22;57229;51.432;-2.598;2023-12-20T04:29:45;9.40;99.90
56256;DHT22;57229;51.432;-2.598;2023-12-20T04:32:10;8.40;99.90
56256;DHT22;57229;51.432;-2.598;2023-12-20T04:34:36;8.50;99.90
56256;DHT22;57229;51.432;-2.598;2023-12-20T04:37:02;8.00;99.90
56256;DHT22;57229;51.432;-2.598;2023-12-20T04:39:28;8.00;99.90
56256;DHT22;57229;51.432;-2.598;2023-12-20T04:41:53;8.40;99.90
56256;DHT22;57229;51.432;-2.598;2023-12-20T04:44:27;8.60;99.90
56256;DHT22;57229;51.432;-2.598;2023-12-20T04:46:53;8.30;99.90
56256;DHT22;57229;51.432;-2.598;2023-12-20T04:49:22;7.70;99.90
56256;DHT22;57229;51.432;-2.598;2023-12-20T04:51:50;8.30;99.90
56256;DHT22;57229;51.432;-2.598;2023-12-20T04:54:19;9.60;99.90
56256;DHT22;57229;51.432;-2.598;2023-12-20T04:56:48;8.40;99.90
56256;DHT22;57229;51.432;-2.598;2023-12-20T04:59:14;8.40;99.90
56256;DHT22;57229;51.432;-2.598;2023-12-20T05:01:40;8.40;99.90
56256;DHT22;57229;51.432;-2.598;2023-12-20T05:04:07;8.30;99.90
56256;DHT22;57229;51.432;-2.598;2023-12-20T05:06:40;8.30;99.90
56256;DHT22;57229;51.432;-2.598;2023-12-20T05:09:07;8.30;99.90
56256;DHT22;57229;51.432;-2.598;2023-12-20T05:11:36;8.30;99.90
56256;DHT22;57229;51.432;-2.598;2023-12-20T05:14:02;8.20;99.90
56256;DHT22;57229;51.432;-2.598;2023-12-20T05:16:28;8.20;99.90
56256;DHT22;57229;51.432;-2.598;2023-12-20T05:18:54;8.30;99.90
56256;DHT22;57229;51.432;-2.598;2023-12-20T05:21:24;8.30;99.90
56256;DHT22;57229;51.432;-2.598;2023-12-20T05:23:50;9.30;99.90
56256;DHT22;57229;51.432;-2.598;2023-12-20T05:26:17;8.50;99.90
56256;DHT22;57229;51.432;-2.598;2023-12-20T05:28:43;8.50;99.90
56256;DHT22;57229;51.432;-2.598;2023-12-20T05:31:09;8.50;99.90
56256;DHT22;57229;51.432;-2.598;2023-12-20T05:33:35;10.30;99.90
56256;DHT22;57229;51.432;-2.598;2023-12-20T05:36:00;8.60;99.90
56256;DHT22;57229;51.432;-2.598;2023-12-20T05:38:26;9.60;99.90
56256;DHT22;57229;51.432;-2.598;2023-12-20T05:40:55;8.30;99.90
56256;DHT22;57229;51.432;-2.598;2023-12-20T05:43:21;7.10;99.90
56256;DHT22;57229;51.432;-2.598;2023-12-20T05:45:46;8.30;99.90
56256;DHT22;57229;51.432;-2.598;2023-12-20T05:48:12;8.30;99.90
56256;DHT22;57229;51.432;-2.598;2023-12-20T05:50:37;8.40;99.90
56256;DHT22;57229;51.432;-2.598;2023-12-20T05:53:04;8.40;99.90
56256;DHT22;57229;51.432;-2.598;2023-12-20T05:55:30;8.60;99.90
56256;DHT22;57229;51.432;-2.598;2023-12-20T05:57:56;8.00;99.90
56256;DHT22;57229;51.432;-2.598;2023-12-20T06:00:22;8.00;99.90
56256;DHT22;57229;51.432;-2.598;2023-12-20T06:02:52;8.00;99.90
56256;DHT22;57229;51.432;-2.598;2023-12-20T06:05:20;8.10;99.90
56256;DHT22;57229;51.432;-2.598;2023-12-20T06:07:46;8.50;99.90
56256;DHT22;57229;51.432;-2.598;2023-12-20T06:10:14;9.60;99.90
56256;DHT22;57229;51.432;-2.598;2023-12-20T06:12:39;8.00;99.90
56256;DHT22;57229;51.432;-2.598;2023-12-20T06:15:06;8.50;99.90
56256;DHT22;57229;51.432;-2.598;2023-12-20T06:17:32;8.20;99.90
56256;DHT22;57229;51.432;-2.598;2023-12-20T06:19:59;8.20;99.90
56256;DHT22;57229;51.432;-2.598;2023-12-20T06:22:25;8.20;99.90
56256;DHT22;57229;51.432;-2.598;2023-12-20T06:24:50;9.00;99.90
56256;DHT22;57229;51.432;-2.598;2023-12-20T06:27:16;9.90;99.90
56256;DHT22;57229;51.432;-2.598;2023-12-20T06:29:42;8.10;99.90
56256;DHT22;57229;51.432;-2.598;2023-12-20T06:32:09;8.70;99.90
56256;DHT22;57229;51.432;-2.598;2023-12-20T06:34:35;8.40;99.90
56256;DHT22;57229;51.432;-2.598;2023-12-20T06:37:00;8.30;99.90
56256;DHT22;57229;51.432;-2.598;2023-12-20T06:39:26;8.90;99.90
56256;DHT22;57229;51.432;-2.598;2023-12-20T06:41:56;8.40;99.90
56256;DHT22;57229;51.432;-2.598;2023-12-20T06:44:25;8.10;99.90
56256;DHT22;57229;51.432;-2.598;2023-12-20T06:46:51;8.30;99.90
56256;DHT22;57229;51.432;-2.598;2023-12-20T06:49:17;8.40;99.90
56256;DHT22;57229;51.432;-2.598;2023-12-20T06:51:43;8.40;99.90
56256;DHT22;57229;51.432;-2.598;2023-12-20T06:54:09;8.40;99.90
56256;DHT22;57229;51.432;-2.598;2023-12-20T06:56:35;8.40;99.90
56256;DHT22;57229;51.432;-2.598;2023-12-20T06:59:00;8.40;99.90
56256;DHT22;57229;51.432;-2.598;2023-12-20T07:01:32;8.40;99.90
56256;DHT22;57229;51.432;-2.598;2023-12-20T07:04:07;8.40;99.90
56256;DHT22;57229;51.432;-2.598;2023-12-20T07:06:33;8.40;99.90
56256;DHT22;57229;51.432;-2.598;2023-12-20T07:08:59;8.40;99.90
56256;DHT22;57229;51.432;-2.598;2023-12-20T07:11:27;7.90;99.90
56256;DHT22;57229;51.432;-2.598;2023-12-20T07:14:25;8.50;99.90
56256;DHT22;57229;51.432;-2.598;2023-12-20T07:16:51;8.60;99.90
56256;DHT22;57229;51.432;-2.598;2023-12-20T07:19:17;10.60;99.90
56256;DHT22;57229;51.432;-2.598;2023-12-20T07:21:43;8.70;99.90
56256;DHT22;57229;51.432;-2.598;2023-12-20T07:24:10;8.60;99.90
56256;DHT22;57229;51.432;-2.598;2023-12-20T07:26:36;8.70;99.90
56256;DHT22;57229;51.432;-2.598;2023-12-20T07:29:03;9.40;99.90
56256;DHT22;57229;51.432;-2.598;2023-12-20T07:31:29;8.70;99.90
56256;DHT22;57229;51.432;-2.598;2023-12-20T07:34:02;8.70;99.90
56256;DHT22;57229;51.432;-2.598;2023-12-20T07:36:28;8.80;99.90
56256;DHT22;57229;51.432;-2.598;2023-12-20T07:38:54;8.80;99.90
56256;DHT22;57229;51.432;-2.598;2023-12-20T07:41:26;8.90;99.90
56256;DHT22;57229;51.432;-2.598;2023-12-20T07:43:55;8.90;99.90
56256;DHT22;57229;51.432;-2.598;2023-12-20T07:46:22;9.00;99.90
56256;DHT22;57229;51.432;-2.598;2023-12-20T07:48:50;9.00;99.90
56256;DHT22;57229;51.432;-2.598;2023-12-20T07:51:16;8.90;99.90
56256;DHT22;57229;51.432;-2.598;2023-12-20T07:53:42;8.90;99.90
56256;DHT22;57229;51.432;-2.598;2023-12-20T07:56:19;8.80;99.90
56256;DHT22;57229;51.432;-2.598;2023-12-20T07:58:45;8.90;99.90
56256;DHT22;57229;51.432;-2.598;2023-12-20T08:01:11;8.90;99.90
56256;DHT22;57229;51.432;-2.598;2023-12-20T08:03:38;8.90;99.90
56256;DHT22;57229;51.432;-2.598;2023-12-20T08:06:04;8.80;99.90
56256;DHT22;57229;51.432;-2.598;2023-12-20T08:08:30;8.80;99.90
56256;DHT22;57229;51.432;-2.598;2023-12-20T08:10:55;8.80;99.90
56256;DHT22;57229;51.432;-2.598;2023-12-20T08:13:23;8.80;99.90
56256;DHT22;57229;51.432;-2.598;2023-12-20T08:15:52;9.40;99.90
56256;DHT22;57229;51.432;-2.598;2023-12-20T08:18:17;8.80;99.90
56256;DHT22;57229;51.432;-2.598;2023-12-20T08:20:43;8.80;99.90
56256;DHT22;57229;51.432;-2.598;2023-12-20T08:23:09;8.80;99.90
56256;DHT22;57229;51.432;-2.598;2023-12-20T08:25:35;9.00;99.90
56256;DHT22;57229;51.432;-2.598;2023-12-20T08:28:02;9.00;99.90
56256;DHT22;57229;51.432;-2.598;2023-12-20T08:30:28;8.60;99.90
56256;DHT22;57229;51.432;-2.598;2023-12-20T08:32:54;8.70;99.90
56256;DHT22;57229;51.432;-2.598;2023-12-20T08:35:20;8.70;99.90
56256;DHT22;57229;51.432;-2.598;2023-12-20T08:37:46;8.70;99.90
56256;DHT22;57229;51.432;-2.598;2023-12-20T08:40:11;8.70;99.90
56256;DHT22;57229;51.432;-2.598;2023-12-20T08:42:37;8.70;99.90
56256;DHT22;57229;51.432;-2.598;2023-12-20T08:45:03;9.30;99.90
56256;DHT22;57229;51.432;-2.598;2023-12-20T08:47:30;8.70;99.90
56256;DHT22;57229;51.432;-2.598;2023-12-20T08:49:55;9.10;99.90
56256;DHT22;57229;51.432;-2.598;2023-12-20T08:52:23;8.80;99.90
56256;DHT22;57229;51.432;-2.598;2023-12-20T08:54:50;9.00;99.90
56256;DHT22;57229;51.432;-2.598;2023-12-20T08:57:21;8.90;99.90
56256;DHT22;57229;51.432;-2.598;2023-12-20T08:59:49;9.00;99.90
56256;DHT22;57229;51.432;-2.598;2023-12-20T09:02:16;9.10;99.90
56256;DHT22;57229;51.432;-2.598;2023-12-20T09:04:42;9.50;99.90
56256;DHT22;57229;51.432;-2.598;2023-12-20T09:07:21;9.20;99.90
56256;DHT22;57229;51.432;-2.598;2023-12-20T09:09:47;9.30;99.90
56256;DHT22;57229;51.432;-2.598;2023-12-20T09:12:12;9.30;99.90
56256;DHT22;57229;51.432;-2.598;2023-12-20T09:14:38;9.50;99.90
56256;DHT22;57229;51.432;-2.598;2023-12-20T09:17:03;9.30;99.90
56256;DHT22;57229;51.432;-2.598;2023-12-20T09:19:29;9.40;99.90
56256;DHT22;57229;51.432;-2.598;2023-12-20T09:21:55;10.20;99.90
56256;DHT22;57229;51.432;-2.598;2023-12-20T09:24:20;10.80;99.90
56256;DHT22;57229;51.432;-2.598;2023-12-20T09:26:46;9.40;99.90
56256;DHT22;57229;51.432;-2.598;2023-12-20T09:29:12;9.50;99.90
56256;DHT22;57229;51.432;-2.598;2023-12-20T09:31:41;9.40;99.90
56256;DHT22;57229;51.432;-2.598;2023-12-20T09:34:07;9.50;99.90
56256;DHT22;57229;51.432;-2.598;2023-12-20T09:36:35;9.40;99.90
56256;DHT22;57229;51.432;-2.598;2023-12-20T09:39:02;9.40;99.90
56256;DHT22;57229;51.432;-2.598;2023-12-20T09:41:31;9.40;99.90
56256;DHT22;57229;51.432;-2.598;2023-12-20T09:44:00;9.40;99.90
56256;DHT22;57229;51.432;-2.598;2023-12-20T09:46:28;9.60;99.90
56256;DHT22;57229;51.432;-2.598;2023-12-20T09:48:59;11.20;99.90
56256;DHT22;57229;51.432;-2.598;2023-12-20T09:51:26;10.40;99.90
56256;DHT22;57229;51.432;-2.598;2023-12-20T09:53:54;9.60;99.90
56256;DHT22;57229;51.432;-2.598;2023-12-20T09:56:22;9.70;99.90
56256;DHT22;57229;51.432;-2.598;2023-12-20T09:58:48;9.80;99.90
56256;DHT22;57229;51.432;-2.598;2023-12-20T10:01:15;11.00;99.90
56256;DHT22;57229;51.432;-2.598;2023-12-20T10:03:41;9.80;99.90
56256;DHT22;57229;51.432;-2.598;2023-12-20T10:06:07;11.70;99.90
56256;DHT22;57229;51.432;-2.598;2023-12-20T10:08:34;9.90;99.90
56256;DHT22;57229;51.432;-2.598;2023-12-20T10:10:59;11.50;99.90
56256;DHT22;57229;51.432;-2.598;2023-12-20T10:13:28;11.40;99.90
56256;DHT22;57229;51.432;-2.598;2023-12-20T10:15:55;10.10;99.90
56256;DHT22;57229;51.432;-2.598;2023-12-20T10:18:21;10.70;99.90
56256;DHT22;57229;51.432;-2.598;2023-12-20T10:20:46;10.40;99.90
56256;DHT22;57229;51.432;-2.598;2023-12-20T10:23:12;11.30;99.90
56256;DHT22;57229;51.432;-2.598;2023-12-20T10:25:39;10.30;99.90
56256;DHT22;57229;51.432;-2.598;2023-12-20T10:28:14;10.40;99.90
56256;DHT22;57229;51.432;-2.598;2023-12-20T10:30:41;10.80;99.90
56256;DHT22;57229;51.432;-2.598;2023-12-20T10:33:07;10.50;99.90
56256;DHT22;57229;51.432;-2.598;2023-12-20T10:35:36;10.40;99.90
56256;DHT22;57229;51.432;-2.598;2023-12-20T10:38:04;10.50;99.90
56256;DHT22;57229;51.432;-2.598;2023-12-20T10:40:31;10.50;99.90
56256;DHT22;57229;51.432;-2.598;2023-12-20T10:43:01;11.40;99.90
56256;DHT22;57229;51.432;-2.598;2023-12-20T10:45:28;10.70;99.90
56256;DHT22;57229;51.432;-2.598;2023-12-20T10:47:53;11.80;99.90
56256;DHT22;57229;51.432;-2.598;2023-12-20T10:50:19;11.30;99.90
56256;DHT22;57229;51.432;-2.598;2023-12-20T10:52:47;10.80;99.90
56256;DHT22;57229;51.432;-2.598;2023-12-20T10:55:13;11.30;99.90
56256;DHT22;57229;51.432;-2.598;2023-12-20T10:57:39;10.80;99.90
56256;DHT22;57229;51.432;-2.598;2023-12-20T11:00:08;10.80;99.90
56256;DHT22;57229;51.432;-2.598;2023-12-20T11:02:40;10.90;99.90
56256;DHT22;57229;51.432;-2.598;2023-12-20T11:05:06;11.20;99.90
56256;DHT22;57229;51.432;-2.598;2023-12-20T11:07:39;11.00;99.90
56256;DHT22;57229;51.432;-2.598;2023-12-20T11:13:17;11.60;99.90
56256;DHT22;57229;51.432;-2.598;2023-12-20T11:15:45;12.20;99.90
56256;DHT22;57229;51.432;-2.598;2023-12-20T11:18:11;12.00;99.90
56256;DHT22;57229;51.432;-2.598;2023-12-20T11:20:39;11.40;99.90
56256;DHT22;57229;51.432;-2.598;2023-12-20T11:23:05;11.10;99.90
56256;DHT22;57229;51.432;-2.598;2023-12-20T11:25:47;11.10;99.90
56256;DHT22;57229;51.432;-2.598;2023-12-20T11:28:14;10.90;99.90
56256;DHT22;57229;51.432;-2.598;2023-12-20T11:30:50;10.80;99.90
56256;DHT22;57229;51.432;-2.598;2023-12-20T11:33:17;10.80;99.90
56256;DHT22;57229;51.432;-2.598;2023-12-20T11:35:47;10.80;99.90
56256;DHT22;57229;51.432;-2.598;2023-12-20T11:38:14;10.80;99.90
56256;DHT22;57229;51.432;-2.598;2023-12-20T11:40:42;10.90;99.90
56256;DHT22;57229;51.432;-2.598;2023-12-20T11:43:07;11.70;99.90
56256;DHT22;57229;51.432;-2.598;2023-12-20T11:45:34;11.90;99.90
56256;DHT22;57229;51.432;-2.598;2023-12-20T11:48:02;11.00;99.90
56256;DHT22;57229;51.432;-2.598;2023-12-20T11:50:28;10.90;99.90
56256;DHT22;57229;51.432;-2.598;2023-12-20T11:52:55;11.90;99.90
56256;DHT22;57229;51.432;-2.598;2023-12-20T11:55:22;11.20;99.90
56256;DHT22;57229;51.432;-2.598;2023-12-20T11:57:50;11.40;99.90
56256;DHT22;57229;51.432;-2.598;2023-12-20T12:00:16;12.50;99.90
56256;DHT22;57229;51.432;-2.598;2023-12-20T12:02:42;13.20;99.90
56256;DHT22;57229;51.432;-2.598;2023-12-20T12:05:08;13.20;99.90
56256;DHT22;57229;51.432;-2.598;2023-12-20T12:07:34;13.50;99.90
56256;DHT22;57229;51.432;-2.598;2023-12-20T12:10:00;15.30;99.90
56256;DHT22;57229;51.432;-2.598;2023-12-20T12:12:26;13.60;99.90
56256;DHT22;57229;51.432;-2.598;2023-12-20T12:14:54;14.20;99.90
56256;DHT22;57229;51.432;-2.598;2023-12-20T12:17:20;14.30;99.90
56256;DHT22;57229;51.432;-2.598;2023-12-20T12:19:45;14.30;99.90
56256;DHT22;57229;51.432;-2.598;2023-12-20T12:22:13;14.70;99.90
56256;DHT22;57229;51.432;-2.598;2023-12-20T12:24:41;15.20;99.90
56256;DHT22;57229;51.432;-2.598;2023-12-20T12:27:07;15.40;99.90
56256;DHT22;57229;51.432;-2.598;2023-12-20T12:29:34;15.40;99.90
56256;DHT22;57229;51.432;-2.598;2023-12-20T12:32:00;15.10;99.90
56256;DHT22;57229;51.432;-2.598;2023-12-20T12:34:28;14.40;99.90
56256;DHT22;57229;51.432;-2.598;2023-12-20T12:36:54;13.60;99.90
56256;DHT22;57229;51.432;-2.598;2023-12-20T12:39:21;12.80;99.90
56256;DHT22;57229;51.432;-2.598;2023-12-20T12:41:49;12.50;99.90
56256;DHT22;57229;51.432;-2.598;2023-12-20T12:44:14;12.30;99.90
56256;DHT22;57229;51.432;-2.598;2023-12-20T12:46:40;12.20;99.90
56256;DHT22;57229;51.432;-2.598;2023-12-20T12:49:06;13.70;99.90
56256;DHT22;57229;51.432;-2.598;2023-12-20T12:51:32;11.90;99.90
56256;DHT22;57229;51.432;-2.598;2023-12-20T12:53:57;11.90;99.90
56256;DHT22;57229;51.432;-2.598;2023-12-20T12:56:23;12.00;99.90
56256;DHT22;57229;51.432;-2.598;2023-12-20T12:58:49;12.40;99.90
56256;DHT22;57229;51.432;-2.598;2023-12-20T13:01:15;12.00;99.90
56256;DHT22;57229;51.432;-2.598;2023-12-20T13:03:41;11.70;99.90
56256;DHT22;57229;51.432;-2.598;2023-12-20T13:06:06;11.60;99.90
56256;DHT22;57229;51.432;-2.598;2023-12-20T13:08:34;11.80;99.90
56256;DHT22;57229;51.432;-2.598;2023-12-20T13:11:00;11.80;99.90
56256;DHT22;57229;51.432;-2.598;2023-12-20T13:13:29;11.80;99.90
56256;DHT22;57229;51.432;-2.598;2023-12-20T13:15:55;11.60;99.90
56256;DHT22;57229;51.432;-2.598;2023-12-20T13:18:23;12.30;99.90
56256;DHT22;57229;51.432;-2.598;2023-12-20T13:20:49;11.50;99.90
56256;DHT22;57229;51.432;-2.598;2023-12-20T13:23:15;11.30;99.90
56256;DHT22;57229;51.432;-2.598;2023-12-20T13:25:43;11.00;99.90
56256;DHT22;57229;51.432;-2.598;2023-12-20T13:28:11;12.00;99.90
56256;DHT22;57229;51.432;-2.598;2023-12-20T13:30:37;11.50;99.90
56256;DHT22;57229;51.432;-2.598;2023-12-20T13:33:04;10.80;99.90
56256;DHT22;57229;51.432;-2.598;2023-12-20T13:35:30;10.70;99.90
56256;DHT22;57229;51.432;-2.598;2023-12-20T13:37:57;11.20;99.90
56256;DHT22;57229;51.432;-2.598;2023-12-20T13:40:23;11.70;99.90
56256;DHT22;57229;51.432;-2.598;2023-12-20T13:42:49;11.10;99.90
56256;DHT22;57229;51.432;-2.598;2023-12-20T13:45:14;10.60;99.90
56256;DHT22;57229;51.432;-2.598;2023-12-20T13:47:40;10.60;99.90
56256;DHT22;57229;51.432;-2.598;2023-12-20T13:50:06;10.60;99.90
56256;DHT22;57229;51.432;-2.598;2023-12-20T13:52:32;10.50;99.90
56256;DHT22;57229;51.432;-2.598;2023-12-20T13:54:57;10.50;99.90
56256;DHT22;57229;51.432;-2.598;2023-12-20T13:57:23;10.50;99.90
56256;DHT22;57229;51.432;-2.598;2023-12-20T13:59:48;10.50;99.90
56256;DHT22;57229;51.432;-2.598;2023-12-20T14:02:14;10.40;99.90
56256;DHT22;57229;51.432;-2.598;2023-12-20T14:04:41;10.30;99.90
56256;DHT22;57229;51.432;-2.598;2023-12-20T14:07:07;10.30;99.90
56256;DHT22;57229;51.432;-2.598;2023-12-20T14:09:35;10.30;99.90
56256;DHT22;57229;51.432;-2.598;2023-12-20T14:12:00;10.20;99.90
56256;DHT22;57229;51.432;-2.598;2023-12-20T14:14:26;10.30;99.90
56256;DHT22;57229;51.432;-2.598;2023-12-20T14:16:52;10.50;99.90
56256;DHT22;57229;51.432;-2.598;2023-12-20T14:19:17;10.30;99.90
56256;DHT22;57229;51.432;-2.598;2023-12-20T14:21:43;10.50;99.90
56256;DHT22;57229;51.432;-2.598;2023-12-20T14:24:12;10.20;99.90
56256;DHT22;57229;51.432;-2.598;2023-12-20T14:26:40;10.80;99.90
56256;DHT22;57229;51.432;-2.598;2023-12-20T14:29:06;10.10;99.90
56256;DHT22;57229;51.432;-2.598;2023-12-20T14:31:33;11.00;99.90
56256;DHT22;57229;51.432;-2.598;2023-12-20T14:33:58;11.10;99.90
56256;DHT22;57229;51.432;-2.598;2023-12-20T14:36:24;10.50;99.90
56256;DHT22;57229;51.432;-2.598;2023-12-20T14:38:50;10.50;99.90
56256;DHT22;57229;51.432;-2.598;2023-12-20T14:41:16;10.60;99.90
56256;DHT22;57229;51.432;-2.598;2023-12-20T14:43:43;10.00;99.90
56256;DHT22;57229;51.432;-2.598;2023-12-20T14:46:08;10.10;99.90
56256;DHT22;57229;51.432;-2.598;2023-12-20T14:48:34;10.10;99.90
56256;DHT22;57229;51.432;-2.598;2023-12-20T14:51:00;10.10;99.90
56256;DHT22;57229;51.432;-2.598;2023-12-20T14:53:26;10.10;99.90
56256;DHT22;57229;51.432;-2.598;2023-12-20T14:55:52;10.10;99.90
56256;DHT22;57229;51.432;-2.598;2023-12-20T14:59:02;10.20;99.90
56256;DHT22;57229;51.432;-2.598;2023-12-20T15:01:27;10.10;99.90
56256;DHT22;57229;51.432;-2.598;2023-12-20T15:03:53;10.20;99.90
56256;DHT22;57229;51.432;-2.598;2023-12-20T15:06:21;10.20;99.90
56256;DHT22;57229;51.432;-2.598;2023-12-20T15:08:47;10.60;99.90
56256;DHT22;57229;51.432;-2.598;2023-12-20T15:11:12;10.30;99.90
56256;DHT22;57229;51.432;-2.598;2023-12-20T15:13:39;10.40;99.90
56256;DHT22;57229;51.432;-2.598;2023-12-20T15:16:05;10.30;99.90
56256;DHT22;57229;51.432;-2.598;2023-12-20T15:18:31;10.30;99.90
56256;DHT22;57229;51.432;-2.598;2023-12-20T15:20:57;10.20;99.90
56256;DHT22;57229;51.432;-2.598;2023-12-20T15:23:23;10.20;99.90
56256;DHT22;57229;51.432;-2.598;2023-12-20T15:25:52;9.80;99.90